createdAt,value
2022-08-03T00:02:20.190Z,22.59
2022-08-03T00:04:48.834Z,22.50
2022-08-03T00:07:18.601Z,22.50
2022-08-03T00:09:46.991Z,22.56
2022-08-03T00:12:15.997Z,22.47
2022-08-03T00:14:44.731Z,22.50
2022-08-03T00:17:13.151Z,22.57
2022-08-03T00:19:41.562Z,22.52
2022-08-03T00:22:10.048Z,22.49
2022-08-03T00:24:39.911Z,22.43
2022-08-03T00:27:08.321Z,22.33
2022-08-03T00:29:59.740Z,22.23
2022-08-03T00:32:25.137Z,22.11
2022-08-03T00:34:58.476Z,22.25
2022-08-03T00:37:40.600Z,22.09
2022-08-03T00:40:14.238Z,22.17
2022-08-03T00:42:51.768Z,22.03
2022-08-03T00:45:21.446Z,22.01
2022-08-03T00:47:50.070Z,22.02
2022-08-03T00:50:20.535Z,21.95
2022-08-03T00:52:49.225Z,21.89
2022-08-03T00:55:19.151Z,21.81
2022-08-03T00:57:48.438Z,21.87
2022-08-03T01:00:20.862Z,21.72
2022-08-03T01:02:52.074Z,21.70
2022-08-03T01:05:21.025Z,21.71
2022-08-03T01:08:04.827Z,21.70
2022-08-03T01:10:43.138Z,21.73
2022-08-03T01:14:03.699Z,21.64
2022-08-03T01:16:25.907Z,21.59
2022-08-03T01:19:24.783Z,21.58
2022-08-03T01:22:10.921Z,21.57
2022-08-03T01:24:52.350Z,21.54
2022-08-03T01:27:30.873Z,21.50
2022-08-03T01:30:07.970Z,21.45
2022-08-03T01:32:59.365Z,21.38
2022-08-03T01:35:38.553Z,21.35
2022-08-03T01:38:13.066Z,21.34
2022-08-03T01:40:44.570Z,21.25
2022-08-03T01:44:27.212Z,21.18
2022-08-03T01:46:10.032Z,21.19
2022-08-03T01:48:41.230Z,21.18
2022-08-03T01:51:11.862Z,21.13
2022-08-03T01:53:43.443Z,21.18
2022-08-03T01:56:13.274Z,21.13
2022-08-03T01:58:43.618Z,21.09
2022-08-03T02:01:15.106Z,21.08
2022-08-03T02:04:00.871Z,21.04
2022-08-03T02:07:01.334Z,21.08
2022-08-03T02:09:23.847Z,20.99
2022-08-03T02:11:53.495Z,21.00
2022-08-03T02:14:23.877Z,21.01
2022-08-03T02:16:54.543Z,21.06
2022-08-03T02:19:23.828Z,21.10
2022-08-03T02:21:56.448Z,21.10
2022-08-03T02:24:30.403Z,21.13
2022-08-03T02:27:00.583Z,21.16
2022-08-03T02:29:40.223Z,21.10
2022-08-03T02:32:16.778Z,21.08
2022-08-03T02:34:50.608Z,20.89
2022-08-03T02:37:21.258Z,20.85
2022-08-03T02:39:53.443Z,20.90
2022-08-03T02:42:24.605Z,20.98
2022-08-03T02:44:56.991Z,20.80
2022-08-03T02:47:29.270Z,20.87
2022-08-03T02:50:20.269Z,21.00
2022-08-03T02:52:50.692Z,21.06
2022-08-03T02:55:21.319Z,20.99
2022-08-03T02:57:51.347Z,20.96
2022-08-03T03:00:28.417Z,20.94
2022-08-03T03:03:00.840Z,20.83
2022-08-03T03:05:54.774Z,20.72
2022-08-03T03:08:28.156Z,20.69
2022-08-03T03:10:59.458Z,20.79
2022-08-03T03:13:30.564Z,20.77
2022-08-03T03:16:04.838Z,20.75
2022-08-03T03:18:36.275Z,20.59
2022-08-03T03:21:06.346Z,20.52
2022-08-03T03:23:38.272Z,20.48
2022-08-03T03:26:07.710Z,20.46
2022-08-03T03:28:38.123Z,20.42
2022-08-03T03:31:07.306Z,20.35
2022-08-03T03:33:38.353Z,20.40
2022-08-03T03:36:08.513Z,20.51
2022-08-03T03:38:37.786Z,20.45
2022-08-03T03:41:07.085Z,20.53
2022-08-03T03:43:35.801Z,20.44
2022-08-03T03:46:05.146Z,20.31
2022-08-03T03:48:36.288Z,20.36
2022-08-03T03:51:05.153Z,20.14
2022-08-03T03:53:33.792Z,20.12
2022-08-03T03:56:03.158Z,20.14
2022-08-03T03:58:33.307Z,20.16
2022-08-03T04:01:02.383Z,20.20
2022-08-03T04:03:31.049Z,20.14
2022-08-03T04:06:33.136Z,20.07
2022-08-03T04:09:20.218Z,20.21
2022-08-03T04:11:53.422Z,20.12
2022-08-03T04:14:27.013Z,20.14
2022-08-03T04:17:00.587Z,20.18
2022-08-03T04:19:35.942Z,20.10
2022-08-03T04:22:12.233Z,20.07
2022-08-03T04:24:46.167Z,20.05
2022-08-03T04:27:18.877Z,20.12
2022-08-03T04:29:50.118Z,20.08
2022-08-03T04:32:20.301Z,20.05
2022-08-03T04:34:48.977Z,20.04
2022-08-03T04:37:33.970Z,20.12
2022-08-03T04:40:04.999Z,20.18
2022-08-03T04:42:35.317Z,20.19
2022-08-03T04:45:05.815Z,20.18
2022-08-03T04:47:35.467Z,20.42
2022-08-03T04:50:09.160Z,20.90
2022-08-03T04:52:42.074Z,21.38
2022-08-03T04:55:11.342Z,21.81
2022-08-03T04:57:39.876Z,22.10
2022-08-03T05:00:10.155Z,22.36
2022-08-03T05:02:38.651Z,22.76
2022-08-03T05:05:08.289Z,22.93
2022-08-03T05:07:36.858Z,23.19
2022-08-03T05:10:15.960Z,23.35
2022-08-03T05:12:47.015Z,23.54
2022-08-03T05:15:16.216Z,23.66
2022-08-03T05:17:45.148Z,23.77
2022-08-03T05:20:13.831Z,24.06
2022-08-03T05:22:46.533Z,24.22
2022-08-03T05:25:16.920Z,24.37
2022-08-03T05:27:47.531Z,24.17
2022-08-03T05:30:31.239Z,24.29
2022-08-03T05:33:04.130Z,24.69
2022-08-03T05:35:56.157Z,24.66
2022-08-03T05:38:24.040Z,24.32
2022-08-03T05:41:22.615Z,24.25
2022-08-03T05:43:48.068Z,24.42
2022-08-03T05:46:16.716Z,24.35
2022-08-03T05:48:45.496Z,24.54
2022-08-03T05:51:14.071Z,24.95
2022-08-03T05:53:43.543Z,25.33
2022-08-03T05:56:16.337Z,25.46
2022-08-03T05:58:47.704Z,25.46
2022-08-03T06:01:17.048Z,25.63
2022-08-03T06:03:45.877Z,26.07
2022-08-03T06:06:14.537Z,26.36
2022-08-03T06:08:44.161Z,26.69
2022-08-03T06:11:14.232Z,26.77
2022-08-03T06:13:42.751Z,26.35
2022-08-03T06:16:11.689Z,26.62
2022-08-03T06:18:41.300Z,26.58
2022-08-03T06:21:15.180Z,27.05
2022-08-03T06:23:52.880Z,27.30
2022-08-03T06:26:26.003Z,27.52
2022-08-03T06:28:54.993Z,27.65
2022-08-03T06:31:32.493Z,27.94
2022-08-03T06:34:32.658Z,28.27
2022-08-03T06:36:53.268Z,28.63
2022-08-03T06:39:23.634Z,28.60
2022-08-03T06:41:54.573Z,28.60
2022-08-03T06:44:23.949Z,28.67
2022-08-03T06:46:52.995Z,28.55
2022-08-03T06:49:21.436Z,27.87
2022-08-03T06:52:04.887Z,27.69
2022-08-03T06:54:39.252Z,27.89
2022-08-03T06:57:11.523Z,28.17
2022-08-03T07:00:07.775Z,28.38
2022-08-03T07:02:28.644Z,28.40
2022-08-03T07:04:58.063Z,28.16
2022-08-03T07:07:26.632Z,28.53
2022-08-03T07:09:57.767Z,29.01
2022-08-03T07:12:30.299Z,28.79
2022-08-03T07:15:02.181Z,28.77
2022-08-03T07:17:32.491Z,29.42
2022-08-03T07:20:02.416Z,29.36
2022-08-03T07:22:30.985Z,28.94
2022-08-03T07:24:59.780Z,29.84
2022-08-03T07:27:30.479Z,30.39
2022-08-03T07:29:59.989Z,30.72
2022-08-03T07:32:31.468Z,30.46
2022-08-03T07:35:01.591Z,30.80
2022-08-03T07:37:31.225Z,31.37
2022-08-03T07:40:00.380Z,32.04
2022-08-03T07:42:30.534Z,31.92
2022-08-03T07:45:00.028Z,31.49
2022-08-03T07:47:35.263Z,31.68
2022-08-03T07:50:08.830Z,31.72
2022-08-03T07:52:50.769Z,32.14
2022-08-03T07:55:21.481Z,32.78
2022-08-03T07:58:02.518Z,32.96
2022-08-03T08:00:31.120Z,33.20
2022-08-03T08:02:59.751Z,33.37
2022-08-03T08:05:29.498Z,33.27
2022-08-03T08:07:57.900Z,33.59
2022-08-03T08:10:26.359Z,33.99
2022-08-03T08:12:56.970Z,34.04
2022-08-03T08:15:25.642Z,34.35
2022-08-03T08:17:56.389Z,34.34
2022-08-03T08:20:30.771Z,35.07
2022-08-03T08:23:02.790Z,35.25
2022-08-03T08:25:33.208Z,35.38
2022-08-03T08:28:31.929Z,35.47
2022-08-03T08:30:52.999Z,35.71
2022-08-03T08:33:23.093Z,35.70
2022-08-03T08:35:54.460Z,36.14
2022-08-03T08:38:23.580Z,36.20
2022-08-03T08:40:52.284Z,35.90
2022-08-03T08:43:22.036Z,34.75
2022-08-03T08:45:51.820Z,35.81
2022-08-03T08:48:25.887Z,36.41
2022-08-03T08:50:55.311Z,37.08
2022-08-03T08:53:27.888Z,36.86
2022-08-03T08:56:01.487Z,36.36
2022-08-03T08:58:37.907Z,36.26
2022-08-03T09:01:07.763Z,36.46
2022-08-03T09:03:36.333Z,35.95
2022-08-03T09:06:05.084Z,35.87
2022-08-03T09:08:34.627Z,35.89
2022-08-03T09:11:03.302Z,36.09
2022-08-03T09:13:34.258Z,36.05
2022-08-03T09:16:14.917Z,36.14
2022-08-03T09:18:45.580Z,35.20
2022-08-03T09:21:36.284Z,35.94
2022-08-03T09:24:16.363Z,35.86
2022-08-03T09:26:53.723Z,36.11
2022-08-03T09:29:23.931Z,36.25
2022-08-03T09:32:03.326Z,35.39
2022-08-03T09:34:32.522Z,35.73
2022-08-03T09:37:00.947Z,35.97
2022-08-03T09:39:41.600Z,36.09
2022-08-03T09:42:14.950Z,36.22
2022-08-03T09:44:47.252Z,35.36
2022-08-03T09:47:18.119Z,35.38
2022-08-03T09:50:02.211Z,35.60
2022-08-03T09:52:39.125Z,35.67
2022-08-03T09:56:02.374Z,34.19
2022-08-03T09:58:10.463Z,34.89
2022-08-03T10:00:56.245Z,34.57
2022-08-03T10:03:25.736Z,34.76
2022-08-03T10:05:59.399Z,34.40
2022-08-03T10:08:28.308Z,34.69
2022-08-03T10:10:58.638Z,34.86
2022-08-03T10:13:27.276Z,35.38
2022-08-03T10:16:22.329Z,35.42
2022-08-03T10:18:45.608Z,35.29
2022-08-03T10:21:18.400Z,34.74
2022-08-03T10:23:48.994Z,34.23
2022-08-03T10:26:20.429Z,35.08
2022-08-03T10:28:51.625Z,35.43
2022-08-03T10:31:23.609Z,35.36
2022-08-03T10:33:58.195Z,35.63
2022-08-03T10:36:32.605Z,35.43
2022-08-03T10:39:02.212Z,34.79
2022-08-03T10:41:42.504Z,34.52
2022-08-03T10:44:15.673Z,35.04
2022-08-03T10:46:46.987Z,34.53
2022-08-03T10:49:21.466Z,33.75
2022-08-03T10:52:13.865Z,34.42
2022-08-03T10:55:11.089Z,34.58
2022-08-03T10:57:58.250Z,34.33
2022-08-03T11:00:28.514Z,34.98
2022-08-03T11:03:10.213Z,34.73
2022-08-03T11:05:42.607Z,35.18
2022-08-03T11:08:35.930Z,34.19
2022-08-03T11:11:28.548Z,32.86
2022-08-03T11:14:04.689Z,33.51
2022-08-03T11:16:36.190Z,34.86
2022-08-03T11:19:08.235Z,34.35
2022-08-03T11:21:57.235Z,34.32
2022-08-03T11:25:02.898Z,33.96
2022-08-03T11:27:34.238Z,34.29
2022-08-03T11:30:07.437Z,34.30
2022-08-03T11:33:00.331Z,34.43
2022-08-03T11:35:32.007Z,34.16
2022-08-03T11:38:11.973Z,33.88
2022-08-03T11:40:46.041Z,34.04
2022-08-03T11:43:47.993Z,33.64
2022-08-03T11:46:29.926Z,33.54
2022-08-03T11:49:10.451Z,34.19
2022-08-03T11:51:41.083Z,33.79
2022-08-03T11:54:09.579Z,33.76
2022-08-03T11:56:50.160Z,33.57
2022-08-03T11:59:22.093Z,32.33
2022-08-03T12:01:51.486Z,32.31
2022-08-03T12:04:20.189Z,32.55
2022-08-03T12:07:03.656Z,31.44
2022-08-03T12:09:34.439Z,31.33
2022-08-03T12:12:02.967Z,31.45
2022-08-03T12:14:50.666Z,31.42
2022-08-03T12:17:20.406Z,31.34
2022-08-03T12:19:49.061Z,31.49
2022-08-03T12:22:32.682Z,32.45
2022-08-03T12:25:01.108Z,32.53
2022-08-03T12:27:30.154Z,32.68
2022-08-03T12:30:00.900Z,31.21
2022-08-03T12:32:30.505Z,30.94
2022-08-03T12:35:01.490Z,31.85
2022-08-03T12:37:31.927Z,30.65
2022-08-03T12:40:10.041Z,29.94
2022-08-03T12:42:41.335Z,30.34
2022-08-03T12:45:27.137Z,31.35
2022-08-03T12:47:59.063Z,32.08
2022-08-03T12:50:32.443Z,32.11
2022-08-03T12:53:04.717Z,32.30
2022-08-03T12:55:56.404Z,31.96
2022-08-03T12:58:34.886Z,32.15
2022-08-03T13:01:09.900Z,31.72
2022-08-03T13:03:45.762Z,31.26
2022-08-03T13:06:20.872Z,30.29
2022-08-03T13:08:52.199Z,30.56
2022-08-03T13:11:52.589Z,30.38
2022-08-03T13:14:19.849Z,30.53
2022-08-03T13:16:49.718Z,30.15
2022-08-03T13:19:18.273Z,30.67
2022-08-03T13:22:01.615Z,31.51
2022-08-03T13:24:34.540Z,30.17
2022-08-03T13:28:01.758Z,30.01
2022-08-03T13:29:54.034Z,29.61
2022-08-03T13:32:23.483Z,29.10
2022-08-03T13:34:52.051Z,30.59
2022-08-03T13:37:20.765Z,30.42
2022-08-03T13:39:59.327Z,30.02
2022-08-03T13:42:31.020Z,30.04
2022-08-03T13:44:59.830Z,30.27
2022-08-03T13:47:28.514Z,29.30
2022-08-03T13:50:01.403Z,29.39
2022-08-03T13:52:33.018Z,29.62
2022-08-03T13:55:03.263Z,29.87
2022-08-03T13:58:02.917Z,29.45
2022-08-03T14:00:26.632Z,29.69
2022-08-03T14:03:06.608Z,29.86
2022-08-03T14:05:38.905Z,29.62
2022-08-03T14:08:08.456Z,29.88
2022-08-03T14:10:40.864Z,30.46
2022-08-03T14:13:10.045Z,30.23
2022-08-03T14:15:38.844Z,29.82
2022-08-03T14:18:11.967Z,30.68
2022-08-03T14:20:48.675Z,31.79
2022-08-03T14:23:18.938Z,30.71
2022-08-03T14:25:52.508Z,29.91
2022-08-03T14:28:24.006Z,29.52
2022-08-03T14:30:54.123Z,29.88
2022-08-03T14:33:23.235Z,30.60
2022-08-03T14:35:53.504Z,30.38
2022-08-03T14:38:22.939Z,30.47
2022-08-03T14:40:53.361Z,31.64
2022-08-03T14:43:22.279Z,31.83
2022-08-03T14:45:53.397Z,29.95
2022-08-03T14:50:24.424Z,29.15
2022-08-03T14:51:10.698Z,29.51
2022-08-03T14:53:39.313Z,29.44
2022-08-03T14:56:10.669Z,29.58
2022-08-03T14:58:39.957Z,29.64
2022-08-03T15:02:03.119Z,29.22
2022-08-03T15:03:57.231Z,29.32
2022-08-03T15:06:25.885Z,30.70
2022-08-03T15:11:44.562Z,31.20
2022-08-03T15:14:13.497Z,30.58
2022-08-03T15:16:43.857Z,31.15
2022-08-03T15:20:03.087Z,31.56
2022-08-03T15:22:01.678Z,31.08
2022-08-03T15:24:30.704Z,30.21
2022-08-03T15:27:00.635Z,30.11
2022-08-03T15:30:06.148Z,29.72
2022-08-03T15:32:23.142Z,30.60
2022-08-03T15:34:52.176Z,30.24
2022-08-03T15:37:21.303Z,29.59
2022-08-03T15:39:59.202Z,29.41
2022-08-03T15:42:31.793Z,29.44
2022-08-03T15:45:00.529Z,30.11
2022-08-03T15:47:29.054Z,29.54
2022-08-03T15:49:57.605Z,29.66
2022-08-03T15:52:26.215Z,30.08
2022-08-03T15:54:54.860Z,29.68
2022-08-03T15:57:23.815Z,30.15
2022-08-03T15:59:53.872Z,29.95
2022-08-03T16:02:22.413Z,29.91
2022-08-03T16:04:52.150Z,31.13
2022-08-03T16:07:41.225Z,30.39
2022-08-03T16:10:30.587Z,30.44
2022-08-03T16:13:02.449Z,29.70
2022-08-03T16:15:32.302Z,29.94
2022-08-03T16:18:07.111Z,29.64
2022-08-03T16:20:36.065Z,29.07
2022-08-03T16:23:11.573Z,29.21
2022-08-03T16:25:42.482Z,29.18
2022-08-03T16:28:15.182Z,29.12
2022-08-03T16:30:47.507Z,29.32
2022-08-03T16:33:17.824Z,29.26
2022-08-03T16:35:47.086Z,29.26
2022-08-03T16:38:19.182Z,30.00
2022-08-03T16:40:51.791Z,29.21
2022-08-03T16:43:22.133Z,29.15
2022-08-03T16:45:52.539Z,29.04
2022-08-03T16:48:21.139Z,29.01
2022-08-03T16:50:49.650Z,29.55
2022-08-03T16:53:32.960Z,29.20
2022-08-03T16:56:04.606Z,29.06
2022-08-03T16:58:41.437Z,29.41
2022-08-03T17:01:21.879Z,30.06
2022-08-03T17:04:01.297Z,29.29
2022-08-03T17:06:35.666Z,29.11
2022-08-03T17:09:08.709Z,29.14
2022-08-03T17:11:46.447Z,28.97
2022-08-03T17:14:17.489Z,28.74
2022-08-03T17:16:57.486Z,28.84
2022-08-03T17:19:27.823Z,28.98
2022-08-03T17:22:04.208Z,28.84
2022-08-03T17:24:41.027Z,28.97
2022-08-03T17:28:42.079Z,28.94
2022-08-03T17:30:10.180Z,29.14
2022-08-03T17:32:52.606Z,29.23
2022-08-03T17:35:34.475Z,29.13
2022-08-03T17:38:08.989Z,28.78
2022-08-03T17:40:50.155Z,28.81
2022-08-03T17:44:14.887Z,28.83
2022-08-03T17:46:10.912Z,28.71
2022-08-03T17:48:42.433Z,28.60
2022-08-03T17:51:17.886Z,28.57
2022-08-03T17:53:56.865Z,28.55
2022-08-03T17:56:42.627Z,28.53
2022-08-03T17:59:52.089Z,29.20
2022-08-03T18:06:11.975Z,29.08
2022-08-03T18:08:29.856Z,29.47
2022-08-03T18:11:14.245Z,29.39
2022-08-03T18:14:06.954Z,29.61
2022-08-03T18:16:49.523Z,29.94
2022-08-03T18:19:18.843Z,30.13
2022-08-03T18:22:03.703Z,30.54
2022-08-03T18:24:32.943Z,30.93
2022-08-03T18:27:02.608Z,30.95
2022-08-03T18:29:33.662Z,30.74
2022-08-03T18:32:07.733Z,30.73
2022-08-03T18:34:53.398Z,30.44
2022-08-03T18:37:26.348Z,30.43
2022-08-03T18:39:58.347Z,29.99
2022-08-03T18:42:28.441Z,29.60
2022-08-03T18:45:14.777Z,29.62
2022-08-03T18:47:59.062Z,29.81
2022-08-03T18:50:36.177Z,29.93
2022-08-03T18:53:19.628Z,29.88
2022-08-03T18:56:15.956Z,29.76
2022-08-03T18:59:00.131Z,29.88
2022-08-03T19:01:59.114Z,29.98
2022-08-03T19:04:33.460Z,29.65
2022-08-03T19:07:08.080Z,29.64
2022-08-03T19:09:49.354Z,29.28
2022-08-03T19:12:30.588Z,29.18
2022-08-03T19:15:12.383Z,29.12
2022-08-03T19:17:50.207Z,29.06
2022-08-03T19:20:25.191Z,29.04
2022-08-03T19:22:56.091Z,29.00
2022-08-03T19:25:34.349Z,28.96
2022-08-03T19:28:06.522Z,28.92
2022-08-03T19:30:40.645Z,28.88
2022-08-03T19:33:16.546Z,28.87
2022-08-03T19:35:55.498Z,28.94
2022-08-03T19:38:29.092Z,29.00
2022-08-03T19:41:05.680Z,28.86
2022-08-03T19:43:53.933Z,28.84
2022-08-03T19:46:30.900Z,28.80
2022-08-03T19:49:10.670Z,28.76
2022-08-03T19:52:02.592Z,28.73
2022-08-03T19:54:52.796Z,28.73
2022-08-03T19:57:27.304Z,28.74
2022-08-03T19:59:57.391Z,28.71
2022-08-03T20:02:29.724Z,28.63
2022-08-03T20:04:59.952Z,28.67
2022-08-03T20:07:32.883Z,28.83
2022-08-03T20:10:04.245Z,28.82
2022-08-03T20:12:39.412Z,28.68
2022-08-03T20:15:10.586Z,28.56
2022-08-03T20:17:57.086Z,28.54
2022-08-03T20:20:32.128Z,28.51
2022-08-03T20:23:03.446Z,28.57
2022-08-03T20:25:55.699Z,28.57
2022-08-03T20:28:35.844Z,28.50
2022-08-03T20:31:30.583Z,28.55
2022-08-03T20:34:01.685Z,28.53
2022-08-03T20:36:30.361Z,28.50
2022-08-03T20:38:59.566Z,28.50
2022-08-03T20:41:28.354Z,28.48
2022-08-03T20:44:01.870Z,28.54
2022-08-03T20:46:41.705Z,28.55
2022-08-03T20:49:23.032Z,28.50
2022-08-03T20:51:53.588Z,28.48
2022-08-03T20:54:29.156Z,28.45
2022-08-03T20:56:59.804Z,28.41
2022-08-03T20:59:46.968Z,28.34
2022-08-03T21:02:30.198Z,28.32
2022-08-03T21:08:05.150Z,28.28
2022-08-03T21:10:41.977Z,28.22
2022-08-03T21:13:04.111Z,29.34
2022-08-03T21:13:07.969Z,28.31
2022-08-03T21:13:27.798Z,28.18
2022-08-03T21:16:04.828Z,28.14
2022-08-03T21:18:47.027Z,28.12
2022-08-03T21:21:17.588Z,28.08
2022-08-03T21:23:48.798Z,28.04
2022-08-03T21:26:19.841Z,27.97
2022-08-03T21:28:49.854Z,27.97
2022-08-03T21:31:25.531Z,27.98
2022-08-03T21:33:57.715Z,27.94
2022-08-03T21:36:28.148Z,27.89
2022-08-03T21:38:57.938Z,27.85
2022-08-03T21:41:27.363Z,27.83
2022-08-03T21:43:55.795Z,27.78
2022-08-03T21:46:27.635Z,27.74
2022-08-03T21:50:07.691Z,27.68
2022-08-03T21:51:53.430Z,27.66
2022-08-03T21:54:24.077Z,27.64
2022-08-03T21:56:55.387Z,27.64
2022-08-03T21:59:24.902Z,27.62
2022-08-03T22:01:58.312Z,27.61
2022-08-03T22:04:38.054Z,27.59
2022-08-03T22:07:17.906Z,27.54
2022-08-03T22:09:51.138Z,27.49
2022-08-03T22:12:24.366Z,27.45
2022-08-03T22:15:00.463Z,27.40
2022-08-03T22:17:55.885Z,27.36
2022-08-03T22:20:22.653Z,27.34
2022-08-03T22:22:56.939Z,27.32
2022-08-03T22:25:30.783Z,27.32
2022-08-03T22:28:00.949Z,27.32
2022-08-03T22:30:29.565Z,27.28
2022-08-03T22:33:00.941Z,27.26
2022-08-03T22:35:29.806Z,27.20
2022-08-03T22:38:00.112Z,27.14
2022-08-03T22:40:29.533Z,27.14
2022-08-03T22:42:58.869Z,27.09
2022-08-03T22:46:07.617Z,27.06
2022-08-03T22:48:18.261Z,26.97
2022-08-03T22:50:47.908Z,26.91
2022-08-03T22:53:18.914Z,26.86
2022-08-03T22:55:48.947Z,26.81
2022-08-03T22:58:17.706Z,26.81
2022-08-03T23:00:54.126Z,26.77
2022-08-03T23:04:00.481Z,26.77
2022-08-03T23:06:18.097Z,26.75
2022-08-03T23:08:48.711Z,26.68
2022-08-03T23:11:20.055Z,26.63
2022-08-03T23:13:53.605Z,26.58
2022-08-03T23:16:28.633Z,26.52
2022-08-03T23:19:06.534Z,26.50
2022-08-03T23:22:00.046Z,26.47
2022-08-03T23:24:32.046Z,26.41
2022-08-03T23:27:00.808Z,26.37
2022-08-03T23:29:31.691Z,26.32
2022-08-03T23:32:02.521Z,26.29
2022-08-03T23:34:50.767Z,26.19
2022-08-03T23:37:20.989Z,26.16
2022-08-03T23:39:50.558Z,26.13
2022-08-03T23:42:21.045Z,26.11
2022-08-03T23:44:56.518Z,26.04
2022-08-03T23:47:46.784Z,26.03
2022-08-03T23:50:18.560Z,25.96
2022-08-03T23:53:03.384Z,25.98
2022-08-03T23:55:57.561Z,26.01
2022-08-03T23:58:40.578Z,25.99
